createdAt,value
2023-01-18T00:00:21.717Z,2.30
2023-01-18T00:02:49.905Z,3.30
2023-01-18T00:05:18.708Z,3.20
2023-01-18T00:07:47.916Z,3.20
2023-01-18T00:10:16.407Z,3.20
2023-01-18T00:12:44.257Z,3.20
2023-01-18T00:15:12.901Z,3.10
2023-01-18T00:17:51.717Z,3.10
2023-01-18T00:20:22.711Z,3.10
2023-01-18T00:22:54.429Z,3.10
2023-01-18T00:25:25.257Z,3.10
2023-01-18T00:27:54.589Z,3.10
2023-01-18T00:30:25.065Z,3.00
2023-01-18T00:32:55.491Z,3.00
2023-01-18T00:35:24.227Z,3.00
2023-01-18T00:37:54.789Z,3.00
2023-01-18T00:40:26.240Z,3.00
2023-01-18T00:43:11.518Z,3.00
2023-01-18T00:45:40.908Z,3.00
2023-01-18T00:48:09.375Z,3.00
2023-01-18T00:50:37.652Z,3.00
2023-01-18T00:53:06.905Z,2.90
2023-01-18T00:55:34.767Z,2.90
2023-01-18T00:58:02.631Z,2.90
2023-01-18T01:00:30.594Z,2.90
2023-01-18T01:02:58.770Z,2.90
2023-01-18T01:05:46.726Z,2.90
2023-01-18T01:08:17.848Z,2.80
2023-01-18T01:10:46.960Z,3.30
2023-01-18T01:13:33.363Z,2.80
2023-01-18T01:16:23.330Z,2.80
2023-01-18T01:19:09.515Z,2.80
2023-01-18T01:21:54.847Z,2.80
2023-01-18T01:24:41.768Z,2.80
2023-01-18T01:27:10.626Z,2.70
2023-01-18T01:29:38.789Z,2.70
2023-01-18T01:32:07.094Z,3.80
2023-01-18T01:34:35.868Z,2.70
2023-01-18T01:37:03.840Z,2.70
2023-01-18T01:39:35.964Z,2.70
2023-01-18T01:42:03.878Z,2.70
2023-01-18T01:44:50.296Z,2.70
2023-01-18T01:47:36.877Z,2.70
2023-01-18T01:50:12.245Z,2.70
2023-01-18T01:52:43.203Z,2.70
2023-01-18T01:55:16.914Z,2.60
2023-01-18T01:57:47.765Z,4.40
2023-01-18T02:00:20.480Z,2.60
2023-01-18T02:02:51.742Z,2.60
2023-01-18T02:05:20.600Z,2.60
2023-01-18T02:07:49.657Z,2.60
2023-01-18T02:10:19.106Z,2.60
2023-01-18T02:12:53.632Z,2.60
2023-01-18T02:15:23.700Z,2.60
2023-01-18T02:18:08.001Z,2.50
2023-01-18T02:21:00.629Z,2.60
2023-01-18T02:23:50.695Z,2.60
2023-01-18T02:26:40.935Z,2.50
2023-01-18T02:29:17.445Z,2.60
2023-01-18T02:31:57.855Z,2.50
2023-01-18T02:34:35.457Z,2.50
2023-01-18T02:37:09.692Z,2.50
2023-01-18T02:39:44.881Z,2.50
2023-01-18T02:42:36.447Z,2.50
2023-01-18T02:45:27.958Z,2.50
2023-01-18T02:47:56.752Z,2.50
2023-01-18T02:50:27.305Z,2.50
2023-01-18T02:52:55.712Z,2.50
2023-01-18T02:55:32.364Z,2.50
2023-01-18T02:58:04.752Z,2.50
2023-01-18T03:00:38.822Z,2.50
2023-01-18T03:03:10.820Z,2.50
2023-01-18T03:05:40.854Z,2.50
2023-01-18T03:08:16.821Z,2.50
2023-01-18T03:10:54.519Z,2.50
2023-01-18T03:13:31.089Z,2.50
2023-01-18T03:16:07.650Z,2.50
2023-01-18T03:19:01.313Z,2.50
2023-01-18T03:21:38.432Z,2.50
2023-01-18T03:24:08.052Z,2.50
2023-01-18T03:26:40.573Z,2.50
2023-01-18T03:29:26.336Z,2.50
2023-01-18T03:32:17.509Z,2.50
2023-01-18T03:34:52.405Z,2.50
2023-01-18T03:37:24.838Z,2.50
2023-01-18T03:39:57.740Z,2.50
2023-01-18T03:42:28.785Z,2.50
2023-01-18T03:45:03.975Z,2.50
2023-01-18T03:47:33.410Z,2.50
2023-01-18T03:50:01.798Z,2.50
2023-01-18T03:52:37.898Z,2.60
2023-01-18T03:55:10.601Z,2.50
2023-01-18T03:57:43.664Z,2.50
2023-01-18T04:00:13.520Z,2.50
2023-01-18T04:02:44.862Z,2.50
2023-01-18T04:05:13.015Z,2.50
2023-01-18T04:07:40.964Z,2.50
2023-01-18T04:10:10.000Z,2.50
2023-01-18T04:12:37.949Z,2.50
2023-01-18T04:15:06.745Z,2.50
2023-01-18T04:17:34.596Z,2.50
2023-01-18T04:20:03.839Z,2.50
2023-01-18T04:22:31.878Z,2.40
2023-01-18T04:24:59.866Z,2.40
2023-01-18T04:27:27.763Z,3.40
2023-01-18T04:29:55.847Z,2.40
2023-01-18T04:32:23.812Z,2.40
2023-01-18T04:34:53.520Z,2.40
2023-01-18T04:37:30.241Z,3.10
2023-01-18T04:39:58.177Z,1.60
2023-01-18T04:42:26.047Z,2.40
2023-01-18T04:44:53.991Z,2.50
2023-01-18T04:47:21.984Z,2.50
2023-01-18T04:49:49.883Z,2.50
2023-01-18T04:52:19.228Z,2.50
2023-01-18T04:54:48.884Z,2.50
2023-01-18T04:57:16.984Z,2.50
2023-01-18T04:59:45.829Z,2.50
2023-01-18T05:02:15.061Z,2.50
2023-01-18T05:04:43.542Z,2.50
2023-01-18T05:07:11.887Z,2.50
2023-01-18T05:09:39.818Z,2.50
2023-01-18T05:12:09.240Z,2.50
2023-01-18T05:14:37.118Z,2.50
2023-01-18T05:17:04.942Z,2.50
2023-01-18T05:19:32.856Z,2.50
2023-01-18T05:22:00.789Z,2.50
2023-01-18T05:24:30.029Z,2.50
2023-01-18T05:26:58.121Z,2.50
2023-01-18T05:29:27.510Z,2.50
2023-01-18T05:31:55.515Z,2.50
2023-01-18T05:34:23.668Z,2.50
2023-01-18T05:36:51.768Z,2.60
2023-01-18T05:39:19.559Z,2.60
2023-01-18T05:41:49.783Z,2.60
2023-01-18T05:44:17.565Z,2.60
2023-01-18T05:46:46.760Z,2.60
2023-01-18T05:49:14.771Z,2.60
2023-01-18T05:51:42.575Z,2.60
2023-01-18T05:54:10.404Z,2.60
2023-01-18T05:56:38.403Z,2.60
2023-01-18T05:59:06.804Z,0.70
2023-01-18T06:01:34.722Z,2.60
2023-01-18T06:04:04.048Z,2.60
2023-01-18T06:06:33.911Z,2.60
2023-01-18T06:09:03.335Z,2.60
2023-01-18T06:11:31.329Z,2.60
2023-01-18T06:13:59.182Z,2.60
2023-01-18T06:16:27.116Z,2.60
2023-01-18T06:18:55.079Z,2.60
2023-01-18T06:21:24.787Z,2.60
2023-01-18T06:23:52.831Z,2.60
2023-01-18T06:26:20.837Z,2.60
2023-01-18T06:28:49.596Z,2.60
2023-01-18T06:31:17.402Z,2.60
2023-01-18T06:33:45.234Z,2.60
2023-01-18T06:36:13.088Z,2.60
2023-01-18T06:38:42.367Z,2.60
2023-01-18T06:41:10.231Z,2.60
2023-01-18T06:43:38.107Z,2.60
2023-01-18T06:46:08.260Z,2.60
2023-01-18T06:48:36.450Z,2.60
2023-01-18T06:51:04.692Z,2.70
2023-01-18T06:53:32.505Z,2.70
2023-01-18T06:56:02.701Z,2.70
2023-01-18T06:58:32.718Z,2.70
2023-01-18T07:01:01.682Z,2.70
2023-01-18T07:03:30.693Z,2.70
2023-01-18T07:06:00.925Z,4.30
2023-01-18T07:08:30.913Z,2.80
2023-01-18T07:10:59.409Z,2.80
2023-01-18T07:13:28.567Z,2.40
2023-01-18T07:16:01.081Z,2.80
2023-01-18T07:18:30.305Z,2.80
2023-01-18T07:21:00.073Z,2.80
2023-01-18T07:23:28.385Z,2.80
2023-01-18T07:26:03.181Z,2.80
2023-01-18T07:28:32.989Z,2.80
2023-01-18T07:31:01.658Z,2.90
2023-01-18T07:33:30.686Z,2.90
2023-01-18T07:35:59.247Z,2.90
2023-01-18T07:38:27.635Z,2.90
2023-01-18T07:41:02.237Z,2.90
2023-01-18T07:43:32.292Z,2.90
2023-01-18T07:46:01.021Z,2.90
2023-01-18T07:48:29.746Z,2.90
2023-01-18T07:50:59.560Z,2.90
2023-01-18T07:53:28.453Z,2.90
2023-01-18T07:56:00.274Z,3.00
2023-01-18T07:58:28.525Z,3.00
2023-01-18T08:01:03.418Z,3.00
2023-01-18T08:03:31.409Z,3.00
2023-01-18T08:05:59.974Z,3.00
2023-01-18T08:08:29.039Z,3.00
2023-01-18T08:10:58.047Z,3.00
2023-01-18T08:13:26.945Z,3.00
2023-01-18T08:15:55.774Z,3.00
2023-01-18T08:18:25.006Z,3.00
2023-01-18T08:20:55.101Z,3.00
2023-01-18T08:23:23.819Z,3.00
2023-01-18T08:25:52.697Z,3.00
2023-01-18T08:28:21.032Z,3.10
2023-01-18T08:30:52.131Z,3.10
2023-01-18T08:33:19.974Z,3.10
2023-01-18T08:35:54.602Z,3.10
2023-01-18T08:38:25.516Z,3.10
2023-01-18T08:40:53.320Z,3.10
2023-01-18T08:43:24.061Z,3.40
2023-01-18T08:45:52.915Z,3.30
2023-01-18T08:48:20.946Z,3.20
2023-01-18T08:50:53.161Z,3.20
2023-01-18T08:53:22.529Z,3.30
2023-01-18T08:55:51.035Z,3.30
2023-01-18T08:58:18.884Z,3.30
2023-01-18T09:00:51.144Z,3.40
2023-01-18T09:03:23.251Z,3.40
2023-01-18T09:05:52.959Z,3.40
2023-01-18T09:08:21.495Z,3.50
2023-01-18T09:10:49.626Z,3.50
2023-01-18T09:13:17.545Z,3.60
2023-01-18T09:15:46.991Z,3.60
2023-01-18T09:18:15.320Z,3.60
2023-01-18T09:20:43.545Z,3.70
2023-01-18T09:23:12.836Z,3.70
2023-01-18T09:25:41.130Z,3.80
2023-01-18T09:28:09.005Z,3.80
2023-01-18T09:30:37.087Z,3.90
2023-01-18T09:33:05.137Z,3.90
2023-01-18T09:35:33.191Z,4.00
2023-01-18T09:38:01.034Z,4.00
2023-01-18T09:40:40.842Z,4.00
2023-01-18T09:43:17.688Z,4.10
2023-01-18T09:45:49.689Z,4.10
2023-01-18T09:48:29.100Z,4.20
2023-01-18T09:51:02.205Z,4.20
2023-01-18T09:53:56.017Z,4.30
2023-01-18T09:56:28.694Z,4.30
2023-01-18T09:59:05.485Z,4.40
2023-01-18T10:01:36.071Z,4.40
2023-01-18T10:04:08.778Z,4.40
2023-01-18T10:06:45.886Z,4.50
2023-01-18T10:09:19.100Z,4.50
2023-01-18T10:11:55.279Z,4.60
2023-01-18T10:14:38.793Z,4.60
2023-01-18T10:17:12.917Z,4.60
2023-01-18T10:19:41.643Z,4.70
2023-01-18T10:22:19.778Z,4.70
2023-01-18T10:24:55.354Z,4.80
2023-01-18T10:27:41.605Z,4.80
2023-01-18T10:30:28.962Z,4.80
2023-01-18T10:32:59.271Z,4.90
2023-01-18T10:35:31.971Z,4.90
2023-01-18T10:38:03.118Z,4.90
2023-01-18T10:40:31.060Z,5.00
2023-01-18T10:43:04.231Z,5.00
2023-01-18T10:45:34.328Z,5.00
2023-01-18T10:48:24.388Z,5.10
2023-01-18T10:50:54.155Z,5.10
2023-01-18T10:53:27.236Z,5.20
2023-01-18T10:56:00.335Z,5.20
2023-01-18T10:58:33.290Z,5.30
2023-01-18T11:01:03.569Z,5.30
2023-01-18T11:03:39.602Z,5.40
2023-01-18T11:06:09.000Z,5.40
2023-01-18T11:08:37.216Z,5.40
2023-01-18T11:11:07.467Z,5.50
2023-01-18T11:13:43.593Z,5.50
2023-01-18T11:16:15.422Z,5.50
2023-01-18T11:18:57.889Z,5.60
2023-01-18T11:21:29.753Z,5.60
2023-01-18T11:23:58.016Z,5.70
2023-01-18T11:26:28.197Z,5.70
2023-01-18T11:29:00.987Z,5.70
2023-01-18T11:31:31.766Z,5.90
2023-01-18T11:34:01.146Z,5.80
2023-01-18T11:36:38.314Z,5.80
2023-01-18T11:39:27.218Z,5.90
2023-01-18T11:42:15.350Z,5.90
2023-01-18T11:44:48.371Z,6.40
2023-01-18T11:47:23.071Z,6.00
2023-01-18T11:49:58.024Z,6.00
2023-01-18T11:52:42.125Z,6.40
2023-01-18T11:55:23.420Z,6.10
2023-01-18T11:57:53.927Z,6.10
2023-01-18T12:00:28.148Z,6.20
2023-01-18T12:03:15.522Z,6.20
2023-01-18T12:05:49.957Z,6.30
2023-01-18T12:08:38.267Z,6.30
2023-01-18T12:11:33.020Z,6.30
2023-01-18T12:14:03.476Z,6.40
2023-01-18T12:16:52.938Z,6.40
2023-01-18T12:19:51.752Z,6.40
2023-01-18T12:22:53.358Z,6.50
2023-01-18T12:25:33.578Z,6.50
2023-01-18T12:28:10.040Z,6.50
2023-01-18T12:30:59.245Z,6.60
2023-01-18T12:33:43.790Z,6.60
2023-01-18T12:36:33.725Z,6.60
2023-01-18T12:39:10.560Z,6.70
2023-01-18T12:41:52.014Z,6.70
2023-01-18T12:44:50.991Z,6.70
2023-01-18T12:47:34.997Z,6.70
2023-01-18T12:50:15.177Z,6.70
2023-01-18T12:52:51.230Z,6.70
2023-01-18T12:55:23.027Z,6.70
2023-01-18T12:57:55.713Z,6.80
2023-01-18T13:00:31.431Z,6.80
2023-01-18T13:02:59.592Z,6.80
2023-01-18T13:05:35.132Z,6.80
2023-01-18T13:08:09.266Z,7.10
2023-01-18T13:10:38.437Z,6.90
2023-01-18T13:13:07.419Z,6.90
2023-01-18T13:15:41.976Z,7.00
2023-01-18T13:18:16.762Z,7.00
2023-01-18T13:21:03.334Z,7.10
2023-01-18T13:23:39.301Z,7.10
2023-01-18T13:26:24.238Z,7.20
2023-01-18T13:29:08.453Z,7.20
2023-01-18T13:31:36.710Z,7.30
2023-01-18T13:34:05.568Z,7.30
2023-01-18T13:36:45.882Z,7.40
2023-01-18T13:39:16.419Z,7.50
2023-01-18T13:42:09.985Z,7.50
2023-01-18T13:44:40.907Z,7.50
2023-01-18T13:47:44.006Z,7.60
2023-01-18T13:50:39.831Z,7.60
2023-01-18T13:53:24.317Z,7.60
2023-01-18T13:56:27.466Z,7.60
2023-01-18T13:59:01.475Z,7.60
2023-01-18T14:01:33.524Z,7.50
2023-01-18T14:04:10.895Z,7.50
2023-01-18T14:06:44.008Z,7.50
2023-01-18T14:09:18.252Z,7.50
2023-01-18T14:11:53.940Z,7.50
2023-01-18T14:14:29.250Z,7.40
2023-01-18T14:17:06.197Z,7.40
2023-01-18T14:19:52.462Z,7.40
2023-01-18T14:22:35.928Z,7.40
2023-01-18T14:25:21.171Z,7.40
2023-01-18T14:27:56.624Z,7.30
2023-01-18T14:30:28.306Z,7.30
2023-01-18T14:33:01.239Z,7.30
2023-01-18T14:35:29.349Z,7.60
2023-01-18T14:38:17.527Z,7.20
2023-01-18T14:40:48.860Z,7.20
2023-01-18T14:43:26.730Z,7.20
2023-01-18T14:45:58.636Z,7.20
2023-01-18T14:48:27.924Z,7.20
2023-01-18T14:50:56.836Z,7.10
2023-01-18T14:53:29.009Z,7.10
2023-01-18T14:56:17.864Z,7.10
2023-01-18T14:58:53.861Z,7.30
2023-01-18T15:01:28.098Z,7.10
2023-01-18T15:03:57.172Z,7.00
2023-01-18T15:06:38.661Z,7.00
2023-01-18T15:09:08.898Z,7.00
2023-01-18T15:11:39.895Z,7.00
2023-01-18T15:14:12.962Z,7.00
2023-01-18T15:16:40.921Z,7.00
2023-01-18T15:19:16.804Z,6.90
2023-01-18T15:21:45.963Z,6.90
2023-01-18T15:24:18.011Z,6.90
2023-01-18T15:26:52.229Z,6.90
2023-01-18T15:29:23.946Z,6.80
2023-01-18T15:31:56.140Z,6.80
2023-01-18T15:34:30.529Z,6.80
2023-01-18T15:37:01.131Z,6.80
2023-01-18T15:39:29.147Z,6.80
2023-01-18T15:41:58.721Z,7.80
2023-01-18T15:44:41.371Z,6.80
2023-01-18T15:47:17.682Z,6.70
2023-01-18T15:49:51.324Z,6.70
2023-01-18T15:52:38.836Z,6.70
2023-01-18T15:55:14.266Z,6.70
2023-01-18T15:57:45.238Z,6.70
2023-01-18T16:00:28.448Z,6.70
2023-01-18T16:02:57.118Z,6.70
2023-01-18T16:05:26.965Z,6.70
2023-01-18T16:08:18.159Z,6.60
2023-01-18T16:10:53.240Z,6.60
2023-01-18T16:13:42.608Z,7.40
2023-01-18T16:16:26.912Z,6.60
2023-01-18T16:19:08.159Z,6.60
2023-01-18T16:21:41.938Z,6.60
2023-01-18T16:24:17.673Z,6.60
2023-01-18T16:26:46.027Z,6.60
2023-01-18T16:29:16.035Z,6.60
2023-01-18T16:31:44.720Z,6.60
2023-01-18T16:34:21.322Z,6.60
2023-01-18T16:36:51.378Z,6.60
2023-01-18T16:39:19.749Z,6.70
2023-01-18T16:41:55.089Z,6.70
2023-01-18T16:44:27.516Z,6.60
2023-01-18T16:46:55.413Z,6.70
2023-01-18T16:49:24.237Z,6.70
2023-01-18T16:51:52.307Z,6.70
2023-01-18T16:54:21.198Z,6.70
2023-01-18T16:56:50.768Z,6.70
2023-01-18T16:59:21.801Z,6.70
2023-01-18T17:01:52.428Z,6.70
2023-01-18T17:04:20.625Z,6.70
2023-01-18T17:06:49.244Z,6.70
2023-01-18T17:09:23.982Z,6.70
2023-01-18T17:11:54.901Z,6.70
2023-01-18T17:14:24.690Z,6.70
2023-01-18T17:16:54.458Z,6.70
2023-01-18T17:19:24.563Z,6.70
2023-01-18T17:21:52.729Z,6.70
2023-01-18T17:24:25.388Z,6.70
2023-01-18T17:26:53.167Z,6.70
2023-01-18T17:29:22.534Z,6.70
2023-01-18T17:31:53.188Z,6.70
2023-01-18T17:34:28.288Z,6.70
2023-01-18T17:36:57.786Z,6.60
2023-01-18T17:39:36.914Z,6.60
2023-01-18T17:42:16.336Z,6.70
2023-01-18T17:44:44.582Z,6.70
2023-01-18T17:47:12.828Z,6.70
2023-01-18T17:49:42.183Z,6.70
2023-01-18T17:52:10.108Z,6.60
2023-01-18T17:54:37.993Z,6.70
2023-01-18T17:57:06.202Z,6.60
2023-01-18T17:59:34.049Z,6.70
2023-01-18T18:02:02.444Z,6.60
2023-01-18T18:04:31.369Z,6.60
2023-01-18T18:07:00.606Z,6.60
2023-01-18T18:09:28.680Z,6.60
2023-01-18T18:11:57.280Z,6.60
2023-01-18T18:14:25.469Z,6.60
2023-01-18T18:16:53.448Z,6.60
2023-01-18T18:19:21.658Z,6.60
2023-01-18T18:21:51.104Z,6.60
2023-01-18T18:24:20.533Z,6.60
2023-01-18T18:26:48.931Z,6.60
2023-01-18T18:29:16.763Z,6.60
2023-01-18T18:31:45.708Z,6.60
2023-01-18T18:34:13.568Z,6.60
2023-01-18T18:36:41.547Z,6.60
2023-01-18T18:39:09.557Z,6.60
2023-01-18T18:41:38.751Z,6.60
2023-01-18T18:44:06.665Z,6.60
2023-01-18T18:46:34.602Z,6.60
2023-01-18T18:49:02.861Z,6.60
2023-01-18T18:51:30.680Z,6.60
2023-01-18T18:53:58.506Z,6.50
2023-01-18T18:56:26.368Z,6.50
2023-01-18T18:58:55.682Z,6.50
2023-01-18T19:01:25.819Z,6.50
2023-01-18T19:03:54.768Z,6.70
2023-01-18T19:06:25.068Z,6.50
2023-01-18T19:08:53.490Z,6.50
2023-01-18T19:11:24.560Z,6.40
2023-01-18T19:13:55.140Z,6.90
2023-01-18T19:16:27.721Z,6.40
2023-01-18T19:18:56.016Z,6.40
2023-01-18T19:21:24.129Z,6.40
2023-01-18T19:23:54.824Z,6.30
2023-01-18T19:26:23.631Z,6.30
2023-01-18T19:28:54.165Z,6.30
2023-01-18T19:31:23.137Z,6.30
2023-01-18T19:33:55.088Z,6.30
2023-01-18T19:36:23.858Z,6.20
2023-01-18T19:38:59.936Z,6.20
2023-01-18T19:41:30.139Z,6.60
2023-01-18T19:43:58.020Z,6.20
